Humidity-temperature Sensor

Selected Measurement Type: Relative Humidity

 
Relative Humidity [%]     6 entries per hour
Showing data from 12/12/2016 (00:00:00 Z) to 12/11/2016 (00:01:00 Z)
Previous Next [ Day | 3-Days | 7-Days ]
First Last
Prev [ Day | 3-Days | 7-Days ] Next
First Last

Start Time:     :
End Time:     :     
Time (in GMT) :00 :50 :40 :30 :20 :10
Previous Next [ Day | 3-Days | 7-Days ]
First Last
Prev [ Day | 3-Days | 7-Days ] Next
First Last


123 => good data
MM => data is determined as missing
-- => data not received/configured
Back to Top Back to Top
12/12/2016 00:00 to 23:10 85.14 85.90 85.14 84.02 82.81 81.50
12/11/2016 23:00 to 22:10 84.42 84.36 86.93 88.00 87.16 87.16
12/11/2016 22:00 to 21:10 87.71 87.22 85.67 82.32 81.88 86.19
12/11/2016 21:00 to 20:10 88.94 88.52 86.63 83.79 82.26 81.33
12/11/2016 20:00 to 19:10 81.23 81.82 81.86 83.23 85.25 83.75
12/11/2016 19:00 to 18:10 84.09 82.64 82.85 83.54 82.78 82.55
12/11/2016 18:00 to 17:10 82.43 82.57 83.79 82.39 81.08 80.37
12/11/2016 17:00 to 16:10 81.27 81.67 81.96 81.90 81.00 81.15
12/11/2016 16:00 to 15:10 80.89 82.05 81.94 81.63 83.20 84.51
12/11/2016 15:00 to 14:10 83.84 84.32 84.19 83.77 84.45 83.50
12/11/2016 14:00 to 13:10 84.42 84.84 85.52 84.42 84.84 85.37
12/11/2016 13:00 to 12:10 86.59 86.44 85.18 85.27 86.07 85.48
12/11/2016 12:00 to 11:10 86.32 87.18 87.56 88.55 89.18 89.11
12/11/2016 11:00 to 10:10 88.69 89.53 89.60 89.03 90.92 89.89
12/11/2016 10:00 to 9:10 89.34 91.47 91.19 91.83 93.68 94.62
12/11/2016 09:00 to 8:10 93.65 91.72 88.69 89.98 90.61 86.23
12/11/2016 08:00 to 7:10 87.85 87.03 83.86 84.40 85.25 84.26
12/11/2016 07:00 to 6:10 84.28 84.55 84.45 84.84 84.03 83.71
12/11/2016 06:00 to 5:10 83.98 83.54 83.12 82.64 82.43 82.32
12/11/2016 05:00 to 4:10 83.20 84.11 85.27 85.01 84.64 82.45
12/11/2016 04:00 to 3:10 82.62 81.38 81.25 82.76 82.17 80.85
12/11/2016 03:00 to 2:10 80.60 81.35 81.59 81.08 80.49 79.99
12/11/2016 02:00 to 1:10 80.12 79.34 78.71 79.50 77.91 79.48
12/11/2016 01:00 to 0:10 80.12 80.37 80.85 81.33 80.66 81.35